»·PEaware :: N127B KAPV-KBFL

N127B :: KAPV-KBFL

FLIGHT INFORMATION

Flight Status: Arrived
Operator: Privately registered:
United States
More flights under this callsign
Pilot: Den B. (14586)
Aircraft: CESSNA 172 SKYHAWK
(C172)
More flights by this aircraft type
Origin: KAPV Apple Valley
United States
Destination: KBFL Meadows
United States
More flights between these airports :: More routes between these airports
Route: EXCON1 EXCON V12 PMD V197 MINGI
File this flight plan on PilotEdge
Remarks: flight following
Altitude:
(Current/Filed)
8,500ft
Speed:
(Current/Filed)
110kts
Departed: 02-Oct-17 11:47 AM
Arrived: 02-Oct-17 12:56 PM
Distance/Time
Traveled:
105nm/1:09
Distance/Time
To Go:
Arrived

Flight Plot

Page will automatically refresh every two minutes.

Flight plan parsing failed; only flown route is shown


Map Options




Map Legend


Flown Route
Filed Route
Departure Airport
Arrival Airport
Navaid (VOR, NDB)
Fix

Horizontal Profiles

Position Reports

Time Latitude Longitude Heading Altitude Ground
Speed
02-Oct-17 11:34 34.574012 -117.189583 269 2974ft 0kts
02-Oct-17 11:35 34.574012 -117.189583 269 2974ft 0kts
02-Oct-17 11:36 34.574012 -117.189583 269 2974ft 0kts
02-Oct-17 11:37 34.574012 -117.189583 269 2974ft 0kts
02-Oct-17 11:38 34.574012 -117.189583 269 2974ft 0kts
02-Oct-17 11:39 34.574012 -117.189583 269 2974ft 0kts
02-Oct-17 11:40 34.574012 -117.189583 269 2974ft 0kts
02-Oct-17 11:41 34.574012 -117.189583 269 2974ft 0kts
02-Oct-17 11:42 34.574012 -117.189583 269 2974ft 0kts
02-Oct-17 11:43 34.574012 -117.189583 269 2974ft 0kts
02-Oct-17 11:44 34.574012 -117.189583 269 2974ft 0kts
02-Oct-17 11:45 34.574012 -117.189583 269 2974ft 0kts
02-Oct-17 11:46 34.574012 -117.189583 269 2974ft 0kts
02-Oct-17 11:47 34.574012 -117.189583 269 2974ft 0kts
02-Oct-17 11:48 34.572683 -117.189127 192 2971ft 15kts
02-Oct-17 11:49 34.570703 -117.189426 111 2964ft 5kts
02-Oct-17 11:50 34.571040 -117.188310 22 2967ft 11kts
02-Oct-17 11:51 34.586269 -117.180827 18 3482ft 77kts
02-Oct-17 11:52 34.605255 -117.178573 79 4241ft 88kts
02-Oct-17 11:53 34.626837 -117.175889 351 4927ft 97kts
02-Oct-17 11:54 34.654896 -117.181146 352 5445ft 105kts
02-Oct-17 11:55 34.684127 -117.185909 353 5943ft 106kts
02-Oct-17 11:56 34.713359 -117.190456 352 6437ft 105kts
02-Oct-17 11:57 34.720521 -117.220695 264 6900ft 105kts
02-Oct-17 11:58 34.717133 -117.255755 264 7392ft 103kts
02-Oct-17 11:59 34.713648 -117.290099 263 7882ft 102kts
02-Oct-17 12:00 34.710144 -117.324040 263 8374ft 100kts
02-Oct-17 12:01 34.706399 -117.360268 263 8499ft 122kts
02-Oct-17 12:02 34.702144 -117.401231 263 8495ft 119kts
02-Oct-17 12:03 34.697998 -117.440834 263 8497ft 117kts
02-Oct-17 12:04 34.693857 -117.480228 263 8497ft 117kts
02-Oct-17 12:05 34.689724 -117.519416 263 8497ft 117kts
02-Oct-17 12:06 34.685570 -117.558668 263 8497ft 117kts
02-Oct-17 12:07 34.681410 -117.597870 263 8497ft 117kts
02-Oct-17 12:08 34.677229 -117.637563 263 8498ft 120kts
02-Oct-17 12:09 34.672885 -117.677939 263 8497ft 120kts
02-Oct-17 12:10 34.668614 -117.717624 263 8497ft 121kts
02-Oct-17 12:11 34.664248 -117.758164 263 8497ft 121kts
02-Oct-17 12:12 34.659887 -117.798579 263 8497ft 121kts
02-Oct-17 12:13 34.655552 -117.838693 263 8497ft 121kts
02-Oct-17 12:14 34.651233 -117.878493 263 8497ft 121kts
02-Oct-17 12:15 34.646826 -117.918981 263 8497ft 121kts
02-Oct-17 12:16 34.642431 -117.959198 263 8469ft 118kts
02-Oct-17 12:17 34.638122 -117.998561 263 8470ft 117kts
02-Oct-17 12:18 34.633861 -118.037378 263 8470ft 117kts
02-Oct-17 12:19 34.639568 -118.072607 311 8473ft 116kts
02-Oct-17 12:20 34.660980 -118.102173 313 8470ft 117kts
02-Oct-17 12:21 34.683021 -118.131319 313 8470ft 117kts
02-Oct-17 12:22 34.705238 -118.160354 314 8470ft 117kts
02-Oct-17 12:23 34.727434 -118.189283 314 8470ft 117kts
02-Oct-17 12:24 34.749552 -118.218111 314 8496ft 116kts
02-Oct-17 12:25 34.771660 -118.246939 314 8497ft 117kts
02-Oct-17 12:26 34.793722 -118.275726 314 8497ft 117kts
02-Oct-17 12:27 34.815759 -118.304695 316 8495ft 117kts
02-Oct-17 12:28 34.838590 -118.334345 315 8498ft 121kts
02-Oct-17 12:29 34.861587 -118.364459 315 8498ft 121kts
02-Oct-17 12:30 34.884905 -118.393970 317 8498ft 121kts
02-Oct-17 12:31 34.908180 -118.422840 320 8555ft 114kts
02-Oct-17 12:32 34.927493 -118.446126 315 8548ft 107kts
02-Oct-17 12:33 34.948229 -118.471868 315 8550ft 106kts
02-Oct-17 12:34 34.968922 -118.497469 315 8548ft 106kts
02-Oct-17 12:35 34.989576 -118.522990 315 8549ft 105kts
02-Oct-17 12:36 35.010193 -118.548481 315 8549ft 105kts
02-Oct-17 12:37 35.030918 -118.574101 315 8549ft 105kts
02-Oct-17 12:38 35.051560 -118.599655 315 8548ft 105kts
02-Oct-17 12:39 35.072225 -118.625245 315 8549ft 105kts
02-Oct-17 12:40 35.092670 -118.650471 315 8550ft 105kts
02-Oct-17 12:41 35.113479 -118.676131 314 8553ft 106kts
02-Oct-17 12:42 35.134785 -118.701181 317 8552ft 106kts
02-Oct-17 12:43 35.156601 -118.725819 317 8553ft 106kts
02-Oct-17 12:44 35.178406 -118.750424 317 8552ft 106kts
02-Oct-17 12:45 35.199626 -118.775070 317 8553ft 101kts
02-Oct-17 12:46 35.218631 -118.799600 316 8552ft 98kts
02-Oct-17 12:47 35.237913 -118.823888 316 8498ft 98kts
02-Oct-17 12:48 35.256916 -118.847734 316 8498ft 97kts
02-Oct-17 12:49 35.275896 -118.871554 316 8489ft 98kts
02-Oct-17 12:50 35.300105 -118.890003 342 7882ft 112kts
02-Oct-17 12:51 35.327099 -118.905199 313 7246ft 97kts
02-Oct-17 12:52 35.346921 -118.925425 317 6628ft 90kts
02-Oct-17 12:53 35.363109 -118.948065 299 5361ft 100kts
02-Oct-17 12:54 35.372388 -118.977309 299 3590ft 104kts
02-Oct-17 12:55 35.386355 -118.998821 313 2306ft 75kts
02-Oct-17 12:56 35.399799 -119.014831 314 1498ft 61kts
02-Oct-17 12:57 35.411032 -119.028768 312 1124ft 53kts
02-Oct-17 12:58 35.421919 -119.041564 315 837ft 53kts
02-Oct-17 12:59 35.432292 -119.054386 313 517ft 48kts
02-Oct-17 13:00 35.436135 -119.058030 41 491ft 0kts
02-Oct-17 13:01 35.435499 -119.055999 135 493ft 15kts
02-Oct-17 13:02 35.434896 -119.053868 82 497ft 2kts

Navigation Log

Ident Type
Flight plan parsing failed, navigation log unavailable